sensor_id;sensor_type;location;lat;lon;timestamp;P1;durP1;ratioP1;P2;durP2;ratioP2
31974;SDS011;18500;43.618;1.474;2023-01-30T05:36:20;699.63;;;646.80;;
31974;SDS011;18500;43.618;1.474;2023-01-30T05:38:46;649.20;;;601.60;;
31974;SDS011;18500;43.618;1.474;2023-01-30T05:41:13;767.92;;;709.80;;
31974;SDS011;18500;43.618;1.474;2023-01-30T05:43:40;543.85;;;508.13;;
31974;SDS011;18500;43.618;1.474;2023-01-30T05:46:06;552.90;;;516.28;;
31974;SDS011;18500;43.618;1.474;2023-01-30T05:48:34;549.58;;;511.83;;
31974;SDS011;18500;43.618;1.474;2023-01-30T05:50:59;623.95;;;580.60;;
31974;SDS011;18500;43.618;1.474;2023-01-30T05:53:26;674.90;;;624.90;;
31974;SDS011;18500;43.618;1.474;2023-01-30T05:55:54;778.88;;;720.17;;
31974;SDS011;18500;43.618;1.474;2023-01-30T05:58:23;615.45;;;572.03;;
31974;SDS011;18500;43.618;1.474;2023-01-30T06:00:50;592.58;;;549.80;;
31974;SDS011;18500;43.618;1.474;2023-01-30T06:03:16;664.20;;;615.97;;
31974;SDS011;18500;43.618;1.474;2023-01-30T06:05:42;675.22;;;626.40;;
31974;SDS011;18500;43.618;1.474;2023-01-30T06:08:07;779.95;;;719.58;;
31974;SDS011;18500;43.618;1.474;2023-01-30T06:10:33;613.17;;;571.45;;
31974;SDS011;18500;43.618;1.474;2023-01-30T06:12:59;582.95;;;541.95;;
31974;SDS011;18500;43.618;1.474;2023-01-30T06:15:25;536.90;;;502.00;;
31974;SDS011;18500;43.618;1.474;2023-01-30T06:17:51;815.67;;;752.95;;
31974;SDS011;18500;43.618;1.474;2023-01-30T06:20:16;600.38;;;557.38;;
31974;SDS011;18500;43.618;1.474;2023-01-30T06:22:42;538.40;;;503.65;;
31974;SDS011;18500;43.618;1.474;2023-01-30T06:25:08;531.10;;;495.63;;
31974;SDS011;18500;43.618;1.474;2023-01-30T06:27:34;617.88;;;574.63;;
31974;SDS011;18500;43.618;1.474;2023-01-30T06:30:00;573.75;;;535.92;;
31974;SDS011;18500;43.618;1.474;2023-01-30T06:32:25;675.33;;;626.42;;
31974;SDS011;18500;43.618;1.474;2023-01-30T06:34:51;582.50;;;543.10;;
31974;SDS011;18500;43.618;1.474;2023-01-30T06:37:17;672.10;;;622.67;;
31974;SDS011;18500;43.618;1.474;2023-01-30T06:39:42;646.47;;;599.20;;
31974;SDS011;18500;43.618;1.474;2023-01-30T06:42:08;571.95;;;532.20;;
31974;SDS011;18500;43.618;1.474;2023-01-30T06:44:34;687.03;;;636.65;;
31974;SDS011;18500;43.618;1.474;2023-01-30T06:46:59;511.25;;;477.10;;
31974;SDS011;18500;43.618;1.474;2023-01-30T06:49:25;536.60;;;501.38;;
31974;SDS011;18500;43.618;1.474;2023-01-30T06:51:50;609.30;;;567.60;;
31974;SDS011;18500;43.618;1.474;2023-01-30T06:54:16;615.85;;;574.00;;
31974;SDS011;18500;43.618;1.474;2023-01-30T06:56:42;637.33;;;591.80;;
31974;SDS011;18500;43.618;1.474;2023-01-30T06:59:07;545.35;;;508.80;;
31974;SDS011;18500;43.618;1.474;2023-01-30T07:01:33;785.67;;;725.65;;
31974;SDS011;18500;43.618;1.474;2023-01-30T07:03:59;766.38;;;708.00;;
31974;SDS011;18500;43.618;1.474;2023-01-30T07:06:27;625.45;;;581.45;;
31974;SDS011;18500;43.618;1.474;2023-01-30T07:08:53;625.47;;;580.58;;
31974;SDS011;18500;43.618;1.474;2023-01-30T07:11:22;551.67;;;513.88;;
31974;SDS011;18500;43.618;1.474;2023-01-30T07:13:48;651.90;;;607.13;;
31974;SDS011;18500;43.618;1.474;2023-01-30T07:16:14;607.38;;;566.15;;
31974;SDS011;18500;43.618;1.474;2023-01-30T07:18:39;558.10;;;520.00;;
31974;SDS011;18500;43.618;1.474;2023-01-30T07:21:05;591.30;;;551.60;;
31974;SDS011;18500;43.618;1.474;2023-01-30T07:23:31;600.17;;;559.30;;
31974;SDS011;18500;43.618;1.474;2023-01-30T07:25:56;564.40;;;527.05;;
31974;SDS011;18500;43.618;1.474;2023-01-30T07:28:22;521.45;;;487.80;;
31974;SDS011;18500;43.618;1.474;2023-01-30T07:30:48;577.33;;;538.65;;
31974;SDS011;18500;43.618;1.474;2023-01-30T07:33:16;596.97;;;556.25;;
31974;SDS011;18500;43.618;1.474;2023-01-30T07:35:42;553.55;;;516.97;;
31974;SDS011;18500;43.618;1.474;2023-01-30T07:38:08;644.90;;;599.00;;
31974;SDS011;18500;43.618;1.474;2023-01-30T07:40:33;569.47;;;529.45;;
31974;SDS011;18500;43.618;1.474;2023-01-30T07:43:03;682.35;;;633.05;;
31974;SDS011;18500;43.618;1.474;2023-01-30T07:45:34;560.35;;;523.70;;
31974;SDS011;18500;43.618;1.474;2023-01-30T07:48:05;500.65;;;468.40;;
31974;SDS011;18500;43.618;1.474;2023-01-30T07:50:35;546.15;;;510.25;;
31974;SDS011;18500;43.618;1.474;2023-01-30T07:53:02;703.42;;;652.72;;
31974;SDS011;18500;43.618;1.474;2023-01-30T07:55:29;650.45;;;600.63;;
31974;SDS011;18500;43.618;1.474;2023-01-30T07:57:54;614.05;;;571.83;;
31974;SDS011;18500;43.618;1.474;2023-01-30T08:00:20;588.08;;;548.55;;
31974;SDS011;18500;43.618;1.474;2023-01-30T08:02:46;615.63;;;572.17;;
31974;SDS011;18500;43.618;1.474;2023-01-30T08:05:11;597.92;;;557.22;;
31974;SDS011;18500;43.618;1.474;2023-01-30T08:07:37;622.30;;;578.75;;
31974;SDS011;18500;43.618;1.474;2023-01-30T08:10:03;747.30;;;688.30;;
31974;SDS011;18500;43.618;1.474;2023-01-30T08:12:29;729.97;;;673.55;;
31974;SDS011;18500;43.618;1.474;2023-01-30T08:14:55;642.25;;;594.67;;
31974;SDS011;18500;43.618;1.474;2023-01-30T08:17:21;669.15;;;620.22;;
31974;SDS011;18500;43.618;1.474;2023-01-30T08:19:47;760.28;;;701.22;;
31974;SDS011;18500;43.618;1.474;2023-01-30T08:22:12;589.03;;;547.25;;
31974;SDS011;18500;43.618;1.474;2023-01-30T08:24:38;671.10;;;622.88;;
31974;SDS011;18500;43.618;1.474;2023-01-30T08:27:04;702.33;;;650.85;;
31974;SDS011;18500;43.618;1.474;2023-01-30T08:29:30;644.97;;;600.20;;
31974;SDS011;18500;43.618;1.474;2023-01-30T08:31:58;681.35;;;633.72;;
31974;SDS011;18500;43.618;1.474;2023-01-30T08:34:25;611.35;;;568.67;;
31974;SDS011;18500;43.618;1.474;2023-01-30T08:36:51;642.40;;;597.03;;
31974;SDS011;18500;43.618;1.474;2023-01-30T08:39:17;711.75;;;661.42;;
31974;SDS011;18500;43.618;1.474;2023-01-30T08:41:43;732.13;;;678.38;;
31974;SDS011;18500;43.618;1.474;2023-01-30T08:44:09;665.55;;;616.60;;
31974;SDS011;18500;43.618;1.474;2023-01-30T08:46:35;633.85;;;590.17;;
31974;SDS011;18500;43.618;1.474;2023-01-30T08:49:01;665.92;;;618.47;;
31974;SDS011;18500;43.618;1.474;2023-01-30T08:51:27;629.50;;;586.00;;
31974;SDS011;18500;43.618;1.474;2023-01-30T08:53:53;597.28;;;557.65;;
31974;SDS011;18500;43.618;1.474;2023-01-30T08:56:19;702.67;;;652.45;;
31974;SDS011;18500;43.618;1.474;2023-01-30T08:58:44;639.90;;;596.35;;
31974;SDS011;18500;43.618;1.474;2023-01-30T09:01:10;713.72;;;661.40;;
31974;SDS011;18500;43.618;1.474;2023-01-30T09:03:37;629.33;;;586.42;;
31974;SDS011;18500;43.618;1.474;2023-01-30T09:06:03;592.83;;;552.90;;
31974;SDS011;18500;43.618;1.474;2023-01-30T09:08:29;776.92;;;718.78;;
31974;SDS011;18500;43.618;1.474;2023-01-30T09:10:58;588.50;;;548.65;;
31974;SDS011;18500;43.618;1.474;2023-01-30T09:13:25;629.53;;;587.40;;
31974;SDS011;18500;43.618;1.474;2023-01-30T09:15:51;672.28;;;624.80;;
31974;SDS011;18500;43.618;1.474;2023-01-30T09:18:17;624.67;;;583.00;;
31974;SDS011;18500;43.618;1.474;2023-01-30T09:20:42;707.92;;;659.00;;
31974;SDS011;18500;43.618;1.474;2023-01-30T09:23:08;678.40;;;630.25;;
31974;SDS011;18500;43.618;1.474;2023-01-30T09:25:34;698.22;;;647.17;;
31974;SDS011;18500;43.618;1.474;2023-01-30T09:27:59;669.42;;;622.90;;
31974;SDS011;18500;43.618;1.474;2023-01-30T09:30:25;729.80;;;677.22;;
31974;SDS011;18500;43.618;1.474;2023-01-30T09:32:51;609.78;;;569.25;;
31974;SDS011;18500;43.618;1.474;2023-01-30T09:35:16;685.75;;;637.30;;
31974;SDS011;18500;43.618;1.474;2023-01-30T09:37:46;714.83;;;663.03;;
31974;SDS011;18500;43.618;1.474;2023-01-30T09:40:16;518.20;;;480.77;;
31974;SDS011;18500;43.618;1.474;2023-01-30T09:45:40;661.22;;;614.80;;
31974;SDS011;18500;43.618;1.474;2023-01-30T09:56:20;620.15;;;578.53;;
31974;SDS011;18500;43.618;1.474;2023-01-30T09:58:48;485.70;;;452.35;;
31974;SDS011;18500;43.618;1.474;2023-01-30T10:01:29;614.47;;;570.50;;
31974;SDS011;18500;43.618;1.474;2023-01-30T10:04:01;548.15;;;509.65;;
31974;SDS011;18500;43.618;1.474;2023-01-30T10:06:53;539.92;;;501.70;;
31974;SDS011;18500;43.618;1.474;2023-01-30T10:09:32;556.65;;;517.88;;
31974;SDS011;18500;43.618;1.474;2023-01-30T10:17:36;377.33;;;351.80;;
31974;SDS011;18500;43.618;1.474;2023-01-30T10:25:49;455.08;;;424.65;;
31974;SDS011;18500;43.618;1.474;2023-01-30T10:28:28;694.47;;;645.40;;
31974;SDS011;18500;43.618;1.474;2023-01-30T10:31:14;533.92;;;497.73;;
31974;SDS011;18500;43.618;1.474;2023-01-30T10:33:43;453.65;;;422.80;;
31974;SDS011;18500;43.618;1.474;2023-01-30T10:36:33;393.10;;;368.30;;
31974;SDS011;18500;43.618;1.474;2023-01-30T10:39:09;558.50;;;520.42;;
31974;SDS011;18500;43.618;1.474;2023-01-30T10:42:13;541.30;;;505.42;;
31974;SDS011;18500;43.618;1.474;2023-01-30T10:44:46;475.20;;;443.50;;
31974;SDS011;18500;43.618;1.474;2023-01-30T10:47:32;454.90;;;426.02;;
31974;SDS011;18500;43.618;1.474;2023-01-30T10:50:15;481.90;;;449.98;;
31974;SDS011;18500;43.618;1.474;2023-01-30T10:52:46;468.02;;;436.17;;
31974;SDS011;18500;43.618;1.474;2023-01-30T10:55:44;509.63;;;476.25;;
31974;SDS011;18500;43.618;1.474;2023-01-30T11:00:58;411.27;;;385.40;;
31974;SDS011;18500;43.618;1.474;2023-01-30T11:06:25;370.75;;;347.73;;
31974;SDS011;18500;43.618;1.474;2023-01-30T11:08:52;312.45;;;292.85;;
31974;SDS011;18500;43.618;1.474;2023-01-30T11:11:22;599.00;;;557.78;;
31974;SDS011;18500;43.618;1.474;2023-01-30T11:14:10;402.33;;;377.58;;
31974;SDS011;18500;43.618;1.474;2023-01-30T11:16:45;504.40;;;472.20;;
31974;SDS011;18500;43.618;1.474;2023-01-30T11:19:11;461.20;;;432.10;;
31974;SDS011;18500;43.618;1.474;2023-01-30T11:21:38;362.80;;;340.02;;
31974;SDS011;18500;43.618;1.474;2023-01-30T11:24:17;345.67;;;324.73;;
31974;SDS011;18500;43.618;1.474;2023-01-30T11:26:45;480.83;;;451.10;;
31974;SDS011;18500;43.618;1.474;2023-01-30T11:31:40;491.88;;;461.38;;
31974;SDS011;18500;43.618;1.474;2023-01-30T11:34:10;532.00;;;496.65;;
31974;SDS011;18500;43.618;1.474;2023-01-30T11:36:39;566.55;;;530.72;;
31974;SDS011;18500;43.618;1.474;2023-01-30T11:41:43;390.75;;;367.73;;
31974;SDS011;18500;43.618;1.474;2023-01-30T11:44:18;536.58;;;504.13;;
31974;SDS011;18500;43.618;1.474;2023-01-30T11:46:56;508.02;;;476.45;;
31974;SDS011;18500;43.618;1.474;2023-01-30T11:49:24;433.88;;;408.48;;
31974;SDS011;18500;43.618;1.474;2023-01-30T11:51:56;490.10;;;459.60;;
31974;SDS011;18500;43.618;1.474;2023-01-30T11:54:34;478.98;;;449.13;;
31974;SDS011;18500;43.618;1.474;2023-01-30T11:57:04;450.63;;;423.77;;
31974;SDS011;18500;43.618;1.474;2023-01-30T11:59:35;513.15;;;481.98;;
31974;SDS011;18500;43.618;1.474;2023-01-30T12:04:49;466.08;;;438.52;;
31974;SDS011;18500;43.618;1.474;2023-01-30T12:07:28;543.95;;;510.75;;
31974;SDS011;18500;43.618;1.474;2023-01-30T12:09:55;605.50;;;565.58;;
31974;SDS011;18500;43.618;1.474;2023-01-30T12:12:30;595.45;;;557.53;;
31974;SDS011;18500;43.618;1.474;2023-01-30T12:21:00;430.15;;;404.95;;
31974;SDS011;18500;43.618;1.474;2023-01-30T12:23:41;522.92;;;491.15;;
31974;SDS011;18500;43.618;1.474;2023-01-30T12:26:20;464.15;;;435.80;;
31974;SDS011;18500;43.618;1.474;2023-01-30T12:29:17;516.58;;;485.33;;
31974;SDS011;18500;43.618;1.474;2023-01-30T12:31:55;469.50;;;441.92;;
31974;SDS011;18500;43.618;1.474;2023-01-30T12:34:23;404.70;;;381.30;;
31974;SDS011;18500;43.618;1.474;2023-01-30T12:36:52;593.08;;;554.65;;
31974;SDS011;18500;43.618;1.474;2023-01-30T12:40:19;633.97;;;591.45;;
31974;SDS011;18500;43.618;1.474;2023-01-30T12:45:30;590.97;;;554.00;;
31974;SDS011;18500;43.618;1.474;2023-01-30T12:48:03;587.97;;;549.90;;
31974;SDS011;18500;43.618;1.474;2023-01-30T12:53:33;588.40;;;551.85;;
31974;SDS011;18500;43.618;1.474;2023-01-30T12:56:21;602.72;;;563.47;;
31974;SDS011;18500;43.618;1.474;2023-01-30T12:59:10;564.17;;;525.25;;
31974;SDS011;18500;43.618;1.474;2023-01-30T13:01:46;549.35;;;514.45;;
31974;SDS011;18500;43.618;1.474;2023-01-30T13:04:39;548.45;;;514.08;;
31974;SDS011;18500;43.618;1.474;2023-01-30T13:18:43;570.30;;;535.17;;
31974;SDS011;18500;43.618;1.474;2023-01-30T13:21:30;641.65;;;596.45;;
31974;SDS011;18500;43.618;1.474;2023-01-30T13:24:09;572.95;;;536.50;;
31974;SDS011;18500;43.618;1.474;2023-01-30T13:26:40;362.17;;;340.88;;
31974;SDS011;18500;43.618;1.474;2023-01-30T13:29:15;532.35;;;496.90;;
31974;SDS011;18500;43.618;1.474;2023-01-30T13:31:58;548.28;;;514.47;;
31974;SDS011;18500;43.618;1.474;2023-01-30T13:34:30;633.70;;;589.65;;
31974;SDS011;18500;43.618;1.474;2023-01-30T13:37:18;450.25;;;423.85;;
31974;SDS011;18500;43.618;1.474;2023-01-30T13:39:49;668.40;;;618.88;;
31974;SDS011;18500;43.618;1.474;2023-01-30T13:42:40;518.90;;;487.25;;
31974;SDS011;18500;43.618;1.474;2023-01-30T13:45:35;500.67;;;470.58;;
31974;SDS011;18500;43.618;1.474;2023-01-30T13:56:10;478.95;;;450.65;;
31974;SDS011;18500;43.618;1.474;2023-01-30T13:59:01;517.78;;;486.08;;
31974;SDS011;18500;43.618;1.474;2023-01-30T14:09:41;492.67;;;463.05;;
31974;SDS011;18500;43.618;1.474;2023-01-30T14:12:22;508.40;;;474.90;;
31974;SDS011;18500;43.618;1.474;2023-01-30T14:15:00;590.05;;;550.38;;
31974;SDS011;18500;43.618;1.474;2023-01-30T14:20:30;522.03;;;489.48;;
31974;SDS011;18500;43.618;1.474;2023-01-30T14:22:57;453.73;;;426.83;;
31974;SDS011;18500;43.618;1.474;2023-01-30T14:32:55;449.90;;;421.70;;
31974;SDS011;18500;43.618;1.474;2023-01-30T14:35:25;391.02;;;368.00;;
31974;SDS011;18500;43.618;1.474;2023-01-30T14:40:32;369.17;;;347.73;;
31974;SDS011;18500;43.618;1.474;2023-01-30T14:50:48;447.40;;;419.10;;
31974;SDS011;18500;43.618;1.474;2023-01-30T14:53:13;583.97;;;543.72;;
31974;SDS011;18500;43.618;1.474;2023-01-30T14:55:39;373.10;;;349.48;;
31974;SDS011;18500;43.618;1.474;2023-01-30T14:58:05;490.92;;;460.08;;
31974;SDS011;18500;43.618;1.474;2023-01-30T15:00:41;397.33;;;373.13;;
31974;SDS011;18500;43.618;1.474;2023-01-30T15:03:14;398.67;;;374.95;;
31974;SDS011;18500;43.618;1.474;2023-01-30T15:05:43;402.50;;;378.52;;
31974;SDS011;18500;43.618;1.474;2023-01-30T15:08:15;472.27;;;442.58;;
31974;SDS011;18500;43.618;1.474;2023-01-30T15:10:51;543.67;;;507.50;;
31974;SDS011;18500;43.618;1.474;2023-01-30T15:19:21;487.63;;;455.40;;
31974;SDS011;18500;43.618;1.474;2023-01-30T15:33:22;282.50;;;266.13;;
31974;SDS011;18500;43.618;1.474;2023-01-30T15:35:48;346.38;;;326.55;;
31974;SDS011;18500;43.618;1.474;2023-01-30T15:38:21;302.38;;;284.60;;
31974;SDS011;18500;43.618;1.474;2023-01-30T15:40:53;430.95;;;404.92;;
31974;SDS011;18500;43.618;1.474;2023-01-30T15:43:26;370.13;;;347.67;;
31974;SDS011;18500;43.618;1.474;2023-01-30T15:48:33;466.23;;;437.50;;
31974;SDS011;18500;43.618;1.474;2023-01-30T15:51:14;375.48;;;354.17;;
31974;SDS011;18500;43.618;1.474;2023-01-30T15:53:44;368.45;;;347.25;;
31974;SDS011;18500;43.618;1.474;2023-01-30T15:56:18;354.55;;;334.15;;
31974;SDS011;18500;43.618;1.474;2023-01-30T15:58:47;337.45;;;318.05;;
31974;SDS011;18500;43.618;1.474;2023-01-30T16:01:16;381.17;;;358.92;;
31974;SDS011;18500;43.618;1.474;2023-01-30T16:03:44;347.30;;;326.63;;
31974;SDS011;18500;43.618;1.474;2023-01-30T16:06:20;378.10;;;355.77;;
31974;SDS011;18500;43.618;1.474;2023-01-30T16:09:35;334.83;;;315.63;;
31974;SDS011;18500;43.618;1.474;2023-01-30T16:11:45;334.88;;;315.70;;
31974;SDS011;18500;43.618;1.474;2023-01-30T16:14:12;486.85;;;454.05;;
31974;SDS011;18500;43.618;1.474;2023-01-30T16:16:41;459.48;;;430.17;;
31974;SDS011;18500;43.618;1.474;2023-01-30T16:19:29;370.10;;;348.33;;
31974;SDS011;18500;43.618;1.474;2023-01-30T16:22:04;454.73;;;427.70;;
31974;SDS011;18500;43.618;1.474;2023-01-30T16:24:35;369.50;;;348.40;;
31974;SDS011;18500;43.618;1.474;2023-01-30T16:27:03;457.67;;;428.75;;
31974;SDS011;18500;43.618;1.474;2023-01-30T16:29:32;644.42;;;598.50;;
31974;SDS011;18500;43.618;1.474;2023-01-30T16:32:10;620.10;;;577.53;;
31974;SDS011;18500;43.618;1.474;2023-01-30T16:34:38;472.17;;;442.70;;
31974;SDS011;18500;43.618;1.474;2023-01-30T16:42:37;623.25;;;580.13;;
31974;SDS011;18500;43.618;1.474;2023-01-30T16:47:35;665.05;;;617.78;;
31974;SDS011;18500;43.618;1.474;2023-01-30T16:50:01;690.67;;;641.75;;
31974;SDS011;18500;43.618;1.474;2023-01-30T16:52:35;684.45;;;634.88;;
31974;SDS011;18500;43.618;1.474;2023-01-30T16:55:19;682.75;;;633.05;;
31974;SDS011;18500;43.618;1.474;2023-01-30T16:57:59;680.35;;;630.78;;
31974;SDS011;18500;43.618;1.474;2023-01-30T17:00:31;715.25;;;663.38;;
31974;SDS011;18500;43.618;1.474;2023-01-30T17:03:00;710.22;;;658.33;;
31974;SDS011;18500;43.618;1.474;2023-01-30T17:05:29;750.58;;;693.55;;
31974;SDS011;18500;43.618;1.474;2023-01-30T17:08:02;689.03;;;637.78;;
31974;SDS011;18500;43.618;1.474;2023-01-30T17:18:53;675.05;;;624.90;;
31974;SDS011;18500;43.618;1.474;2023-01-30T17:21:22;832.42;;;765.45;;
31974;SDS011;18500;43.618;1.474;2023-01-30T17:23:52;712.03;;;657.28;;
31974;SDS011;18500;43.618;1.474;2023-01-30T17:26:28;853.78;;;782.30;;
31974;SDS011;18500;43.618;1.474;2023-01-30T17:28:55;926.03;;;844.22;;
31974;SDS011;18500;43.618;1.474;2023-01-30T17:31:21;911.22;;;832.88;;
31974;SDS011;18500;43.618;1.474;2023-01-30T17:33:47;1030.18;;;931.63;;
31974;SDS011;18500;43.618;1.474;2023-01-30T17:38:47;982.05;;;891.88;;
31974;SDS011;18500;43.618;1.474;2023-01-30T17:41:16;1023.65;;;925.53;;
31974;SDS011;18500;43.618;1.474;2023-01-30T17:43:44;1100.30;;;990.10;;
31974;SDS011;18500;43.618;1.474;2023-01-30T17:46:10;1092.95;;;981.80;;
31974;SDS011;18500;43.618;1.474;2023-01-30T17:48:37;1078.32;;;975.28;;
31974;SDS011;18500;43.618;1.474;2023-01-30T17:51:03;1073.95;;;970.50;;
31974;SDS011;18500;43.618;1.474;2023-01-30T17:53:28;1008.88;;;917.17;;
31974;SDS011;18500;43.618;1.474;2023-01-30T17:55:54;1069.40;;;968.88;;
31974;SDS011;18500;43.618;1.474;2023-01-30T17:58:20;1078.63;;;974.53;;
31974;SDS011;18500;43.618;1.474;2023-01-30T18:00:46;1096.63;;;987.67;;
31974;SDS011;18500;43.618;1.474;2023-01-30T18:03:11;1092.25;;;985.60;;
31974;SDS011;18500;43.618;1.474;2023-01-30T18:05:38;1036.05;;;940.05;;
31974;SDS011;18500;43.618;1.474;2023-01-30T18:08:04;1016.97;;;927.40;;
31974;SDS011;18500;43.618;1.474;2023-01-30T18:10:30;1019.65;;;926.33;;
31974;SDS011;18500;43.618;1.474;2023-01-30T18:12:55;1016.08;;;920.40;;
31974;SDS011;18500;43.618;1.474;2023-01-30T18:15:21;989.33;;;898.90;;
31974;SDS011;18500;43.618;1.474;2023-01-30T18:17:47;953.88;;;869.28;;
31974;SDS011;18500;43.618;1.474;2023-01-30T18:20:16;973.72;;;887.40;;
31974;SDS011;18500;43.618;1.474;2023-01-30T18:22:43;987.67;;;899.65;;
31974;SDS011;18500;43.618;1.474;2023-01-30T18:25:09;996.00;;;907.75;;
31974;SDS011;18500;43.618;1.474;2023-01-30T18:27:39;963.67;;;874.28;;
31974;SDS011;18500;43.618;1.474;2023-01-30T18:30:08;906.20;;;826.38;;
31974;SDS011;18500;43.618;1.474;2023-01-30T18:32:37;987.15;;;892.05;;
31974;SDS011;18500;43.618;1.474;2023-01-30T18:35:03;1035.75;;;938.95;;
31974;SDS011;18500;43.618;1.474;2023-01-30T18:37:29;1065.85;;;960.38;;
31974;SDS011;18500;43.618;1.474;2023-01-30T18:39:55;890.60;;;815.83;;
31974;SDS011;18500;43.618;1.474;2023-01-30T18:42:21;871.63;;;800.20;;
31974;SDS011;18500;43.618;1.474;2023-01-30T18:44:47;844.85;;;772.75;;
31974;SDS011;18500;43.618;1.474;2023-01-30T18:47:12;811.38;;;749.88;;
31974;SDS011;18500;43.618;1.474;2023-01-30T18:49:38;812.13;;;753.33;;
31974;SDS011;18500;43.618;1.474;2023-01-30T18:52:04;814.85;;;752.20;;
31974;SDS011;18500;43.618;1.474;2023-01-30T18:54:29;775.78;;;718.20;;
31974;SDS011;18500;43.618;1.474;2023-01-30T18:56:55;895.20;;;825.70;;
31974;SDS011;18500;43.618;1.474;2023-01-30T18:59:21;957.50;;;874.08;;
31974;SDS011;18500;43.618;1.474;2023-01-30T19:01:47;944.13;;;860.70;;
31974;SDS011;18500;43.618;1.474;2023-01-30T19:04:13;1006.05;;;909.80;;
31974;SDS011;18500;43.618;1.474;2023-01-30T19:06:40;936.90;;;860.20;;
31974;SDS011;18500;43.618;1.474;2023-01-30T19:09:07;911.65;;;834.05;;
31974;SDS011;18500;43.618;1.474;2023-01-30T19:11:35;851.65;;;780.47;;
31974;SDS011;18500;43.618;1.474;2023-01-30T19:14:19;870.63;;;800.83;;
31974;SDS011;18500;43.618;1.474;2023-01-30T19:16:45;992.65;;;905.05;;
31974;SDS011;18500;43.618;1.474;2023-01-30T19:19:11;919.70;;;840.78;;
31974;SDS011;18500;43.618;1.474;2023-01-30T19:21:37;970.53;;;882.45;;
31974;SDS011;18500;43.618;1.474;2023-01-30T19:24:04;1014.97;;;919.80;;
31974;SDS011;18500;43.618;1.474;2023-01-30T19:26:30;919.97;;;840.92;;
31974;SDS011;18500;43.618;1.474;2023-01-30T19:28:56;957.58;;;866.10;;
31974;SDS011;18500;43.618;1.474;2023-01-30T19:31:22;1034.28;;;936.83;;
31974;SDS011;18500;43.618;1.474;2023-01-30T19:33:52;1045.97;;;952.75;;
31974;SDS011;18500;43.618;1.474;2023-01-30T19:36:20;1127.07;;;988.92;;
31974;SDS011;18500;43.618;1.474;2023-01-30T19:38:47;1105.72;;;989.65;;
31974;SDS011;18500;43.618;1.474;2023-01-30T19:41:17;1023.38;;;926.70;;
31974;SDS011;18500;43.618;1.474;2023-01-30T19:43:48;983.17;;;899.72;;
31974;SDS011;18500;43.618;1.474;2023-01-30T19:46:14;1018.60;;;928.35;;
31974;SDS011;18500;43.618;1.474;2023-01-30T19:48:41;927.08;;;847.13;;
31974;SDS011;18500;43.618;1.474;2023-01-30T19:51:08;931.28;;;848.20;;
31974;SDS011;18500;43.618;1.474;2023-01-30T19:53:55;837.45;;;771.95;;
31974;SDS011;18500;43.618;1.474;2023-01-30T19:56:29;795.00;;;735.97;;
31974;SDS011;18500;43.618;1.474;2023-01-30T19:58:56;870.35;;;798.88;;
31974;SDS011;18500;43.618;1.474;2023-01-30T20:01:24;780.10;;;718.83;;
31974;SDS011;18500;43.618;1.474;2023-01-30T20:03:53;824.15;;;758.50;;
31974;SDS011;18500;43.618;1.474;2023-01-30T20:06:24;764.03;;;704.20;;
31974;SDS011;18500;43.618;1.474;2023-01-30T20:08:53;729.97;;;673.88;;
31974;SDS011;18500;43.618;1.474;2023-01-30T20:11:24;838.60;;;771.95;;
31974;SDS011;18500;43.618;1.474;2023-01-30T20:13:50;666.97;;;617.85;;
31974;SDS011;18500;43.618;1.474;2023-01-30T20:16:22;633.17;;;585.65;;
31974;SDS011;18500;43.618;1.474;2023-01-30T20:19:03;646.67;;;598.33;;
31974;SDS011;18500;43.618;1.474;2023-01-30T20:21:37;597.65;;;551.20;;
31974;SDS011;18500;43.618;1.474;2023-01-30T20:24:02;610.47;;;559.55;;
31974;SDS011;18500;43.618;1.474;2023-01-30T20:26:30;581.63;;;536.75;;
31974;SDS011;18500;43.618;1.474;2023-01-30T20:28:59;570.20;;;527.88;;
31974;SDS011;18500;43.618;1.474;2023-01-30T20:31:26;589.40;;;541.75;;
31974;SDS011;18500;43.618;1.474;2023-01-30T20:33:52;513.25;;;474.55;;
31974;SDS011;18500;43.618;1.474;2023-01-30T20:36:21;703.35;;;649.83;;
31974;SDS011;18500;43.618;1.474;2023-01-30T20:38:49;700.90;;;646.85;;
31974;SDS011;18500;43.618;1.474;2023-01-30T20:41:19;700.38;;;647.20;;
31974;SDS011;18500;43.618;1.474;2023-01-30T20:43:48;608.83;;;563.50;;
31974;SDS011;18500;43.618;1.474;2023-01-30T20:46:22;526.05;;;487.38;;
31974;SDS011;18500;43.618;1.474;2023-01-30T20:48:50;634.13;;;587.97;;
31974;SDS011;18500;43.618;1.474;2023-01-30T20:51:17;629.75;;;582.75;;
31974;SDS011;18500;43.618;1.474;2023-01-30T20:53:48;545.03;;;501.83;;
31974;SDS011;18500;43.618;1.474;2023-01-30T20:56:16;741.95;;;682.25;;
31974;SDS011;18500;43.618;1.474;2023-01-30T20:58:43;699.65;;;648.13;;
31974;SDS011;18500;43.618;1.474;2023-01-30T21:01:12;567.38;;;526.72;;
31974;SDS011;18500;43.618;1.474;2023-01-30T21:03:42;494.92;;;459.13;;
31974;SDS011;18500;43.618;1.474;2023-01-30T21:06:09;427.15;;;396.70;;
31974;SDS011;18500;43.618;1.474;2023-01-30T21:08:39;470.10;;;436.05;;
31974;SDS011;18500;43.618;1.474;2023-01-30T21:11:07;486.50;;;453.75;;
31974;SDS011;18500;43.618;1.474;2023-01-30T21:13:35;326.65;;;303.58;;
31974;SDS011;18500;43.618;1.474;2023-01-30T21:18:32;601.53;;;556.35;;
31974;SDS011;18500;43.618;1.474;2023-01-30T21:20:59;550.40;;;510.60;;
31974;SDS011;18500;43.618;1.474;2023-01-30T21:23:25;473.17;;;438.40;;
31974;SDS011;18500;43.618;1.474;2023-01-30T21:25:52;449.23;;;416.00;;
31974;SDS011;18500;43.618;1.474;2023-01-30T21:28:18;509.65;;;473.38;;
31974;SDS011;18500;43.618;1.474;2023-01-30T21:30:44;455.55;;;420.88;;
31974;SDS011;18500;43.618;1.474;2023-01-30T21:33:10;681.40;;;623.40;;
31974;SDS011;18500;43.618;1.474;2023-01-30T21:35:36;710.17;;;653.92;;
31974;SDS011;18500;43.618;1.474;2023-01-30T21:38:02;708.17;;;653.80;;
31974;SDS011;18500;43.618;1.474;2023-01-30T21:40:50;660.95;;;602.15;;
31974;SDS011;18500;43.618;1.474;2023-01-30T21:43:34;652.60;;;598.65;;
31974;SDS011;18500;43.618;1.474;2023-01-30T21:46:00;638.85;;;587.63;;
31974;SDS011;18500;43.618;1.474;2023-01-30T21:48:26;670.63;;;618.00;;
31974;SDS011;18500;43.618;1.474;2023-01-30T21:50:52;650.72;;;597.75;;
31974;SDS011;18500;43.618;1.474;2023-01-30T21:53:18;589.08;;;546.70;;
31974;SDS011;18500;43.618;1.474;2023-01-30T21:55:48;625.58;;;578.13;;
31974;SDS011;18500;43.618;1.474;2023-01-30T21:58:15;769.25;;;709.97;;
31974;SDS011;18500;43.618;1.474;2023-01-30T22:00:41;515.20;;;480.20;;
31974;SDS011;18500;43.618;1.474;2023-01-30T22:03:07;493.88;;;458.80;;
31974;SDS011;18500;43.618;1.474;2023-01-30T22:05:32;489.73;;;454.48;;